PAL1878 RPMD-RPLL
Flight info
| Callsign | PAL1878 |
|---|---|
| Flight time | N/A |
| Altitude | 38000 |
| Route | ANKIN3R ANKIN B473 LAIYA LAIYA5R |
| Aircraft | B77W/H-SDE1E2E3FGHIJ2J3J4J5M1RWXY/LB1D1 |
Departure
| Time | 2026-05-07 06:07 |
|---|---|
| Airport | Francisco Bangoy International Airport (RPMD) |
Arrival
| Time | N/A |
|---|---|
| Airport | Ninoy Aquino International Airport (RPLL) |
| Time | Latitude | Longitude | Altitude | Speed | Heading |
|---|---|---|---|---|---|
| 2026-05-07 05:18 | 7.12864 | 125.64484 | 123 ft | 0 kts | 319° |
| 2026-05-07 05:43 | 7.12859 | 125.64489 | 123 ft | 2 kts | 319° |
| 2026-05-07 05:44 | 7.12851 | 125.64496 | 123 ft | 2 kts | 318° |
| 2026-05-07 05:44 | 7.12842 | 125.64505 | 123 ft | 2 kts | 303° |
| 2026-05-07 05:44 | 7.12840 | 125.64507 | 123 ft | 2 kts | 300° |
| 2026-05-07 05:46 | 7.12837 | 125.64513 | 123 ft | 2 kts | 293° |
| 2026-05-07 05:46 | 7.12833 | 125.64527 | 123 ft | 2 kts | 279° |
| 2026-05-07 05:46 | 7.12832 | 125.64542 | 123 ft | 2 kts | 264° |
| 2026-05-07 05:46 | 7.12835 | 125.64557 | 123 ft | 2 kts | 250° |
| 2026-05-07 05:47 | 7.12841 | 125.64571 | 123 ft | 2 kts | 235° |
| 2026-05-07 05:47 | 7.12845 | 125.64576 | 123 ft | 0 kts | 229° |
| 2026-05-07 05:47 | 7.12847 | 125.64578 | 123 ft | 0 kts | 228° |
| 2026-05-07 05:52 | 7.12834 | 125.64564 | 124 ft | 6 kts | 229° |
| 2026-05-07 05:52 | 7.12805 | 125.64530 | 124 ft | 6 kts | 230° |
| 2026-05-07 05:53 | 7.12776 | 125.64495 | 124 ft | 6 kts | 229° |
| 2026-05-07 05:53 | 7.12744 | 125.64462 | 124 ft | 6 kts | 218° |
| 2026-05-07 05:53 | 7.12702 | 125.64452 | 124 ft | 6 kts | 168° |
| 2026-05-07 05:53 | 7.12664 | 125.64475 | 124 ft | 6 kts | 139° |
| 2026-05-07 05:54 | 7.12657 | 125.64481 | 124 ft | 0 kts | 139° |
| 2026-05-07 05:55 | 7.12653 | 125.64484 | 124 ft | 0 kts | 138° |
| 2026-05-07 05:55 | 7.12647 | 125.64490 | 124 ft | 2 kts | 138° |
| 2026-05-07 05:55 | 7.12641 | 125.64496 | 124 ft | 1 kts | 137° |
| 2026-05-07 05:55 | 7.12632 | 125.64504 | 124 ft | 0 kts | 137° |
| 2026-05-07 05:58 | 7.12614 | 125.64520 | 124 ft | 4 kts | 138° |
| 2026-05-07 05:58 | 7.12589 | 125.64542 | 124 ft | 4 kts | 139° |
| 2026-05-07 05:59 | 7.12562 | 125.64562 | 124 ft | 4 kts | 159° |
| 2026-05-07 05:59 | 7.12536 | 125.64558 | 124 ft | 3 kts | 212° |
| 2026-05-07 05:59 | 7.12520 | 125.64542 | 124 ft | 4 kts | 228° |
| 2026-05-07 05:59 | 7.12496 | 125.64515 | 124 ft | 5 kts | 229° |
| 2026-05-07 06:00 | 7.12467 | 125.64481 | 124 ft | 7 kts | 230° |
| 2026-05-07 06:00 | 7.12434 | 125.64442 | 124 ft | 8 kts | 229° |
| 2026-05-07 06:00 | 7.12394 | 125.64399 | 124 ft | 9 kts | 230° |
| 2026-05-07 06:00 | 7.12351 | 125.64348 | 124 ft | 10 kts | 230° |
| 2026-05-07 06:01 | 7.12304 | 125.64292 | 124 ft | 11 kts | 230° |
| 2026-05-07 06:01 | 7.12286 | 125.64271 | 124 ft | 11 kts | 230° |
| 2026-05-07 06:02 | 7.12077 | 125.64028 | 124 ft | 13 kts | 230° |
| 2026-05-07 06:02 | 7.12015 | 125.63955 | 124 ft | 14 kts | 229° |
| 2026-05-07 06:02 | 7.11950 | 125.63879 | 124 ft | 14 kts | 229° |
| 2026-05-07 06:02 | 7.11884 | 125.63802 | 124 ft | 14 kts | 229° |
| 2026-05-07 06:03 | 7.11819 | 125.63728 | 124 ft | 13 kts | 229° |
| 2026-05-07 06:03 | 7.11763 | 125.63651 | 124 ft | 13 kts | 249° |
| 2026-05-07 06:03 | 7.11751 | 125.63565 | 124 ft | 7 kts | 249° |
| 2026-05-07 06:03 | 7.11710 | 125.63543 | 124 ft | 6 kts | 163° |
| 2026-05-07 06:04 | 7.11692 | 125.63577 | 124 ft | 5 kts | 69° |
| 2026-05-07 06:04 | 7.11701 | 125.63590 | 124 ft | 0 kts | 49° |
| 2026-05-07 06:06 | 7.11739 | 125.63633 | 124 ft | 35 kts | 49° |
| 2026-05-07 06:07 | 7.12082 | 125.64033 | 124 ft | 114 kts | 49° |
| 2026-05-07 06:07 | 7.12758 | 125.64812 | 215 ft | 171 kts | 50° |
| 2026-05-07 06:07 | 7.13563 | 125.65727 | 931 ft | 178 kts | 49° |
| 2026-05-07 06:07 | 7.14469 | 125.66535 | 1763 ft | 178 kts | 30° |
| 2026-05-07 06:08 | 7.15728 | 125.66912 | 2174 ft | 200 kts | 5° |
| 2026-05-07 06:08 | 7.17188 | 125.66782 | 2612 ft | 221 kts | 354° |
| 2026-05-07 06:08 | 7.18801 | 125.66544 | 3111 ft | 242 kts | 353° |
| 2026-05-07 06:08 | 7.20540 | 125.66283 | 3698 ft | 260 kts | 353° |
| 2026-05-07 06:09 | 7.22388 | 125.66003 | 4410 ft | 272 kts | 353° |
| 2026-05-07 06:09 | 7.24278 | 125.65717 | 5414 ft | 273 kts | 353° |
| 2026-05-07 06:09 | 7.26123 | 125.65437 | 6358 ft | 276 kts | 353° |
| 2026-05-07 06:09 | 7.28066 | 125.65143 | 7270 ft | 280 kts | 353° |
| 2026-05-07 06:10 | 7.30012 | 125.64847 | 8141 ft | 284 kts | 353° |
| 2026-05-07 06:10 | 7.31971 | 125.64550 | 9021 ft | 287 kts | 353° |
| 2026-05-07 06:10 | 7.33976 | 125.64246 | 9865 ft | 291 kts | 354° |
| 2026-05-07 06:10 | 7.36022 | 125.63937 | 10557 ft | 302 kts | 354° |
| 2026-05-07 06:11 | 7.38176 | 125.63612 | 11087 ft | 319 kts | 354° |
| 2026-05-07 06:11 | 7.38539 | 125.63557 | 11171 ft | 322 kts | 354° |
| 2026-05-07 06:11 | 7.39648 | 125.63389 | 11424 ft | 331 kts | 353° |
| 2026-05-07 06:11 | 7.41210 | 125.63152 | 11792 ft | 341 kts | 354° |
| 2026-05-07 06:12 | 7.44371 | 125.62351 | 12515 ft | 365 kts | 340° |
| 2026-05-07 06:12 | 7.46715 | 125.61135 | 13075 ft | 383 kts | 328° |
| 2026-05-07 06:12 | 7.48856 | 125.59354 | 13653 ft | 399 kts | 315° |
| 2026-05-07 06:12 | 7.50656 | 125.57158 | 14394 ft | 409 kts | 309° |
| 2026-05-07 06:13 | 7.52404 | 125.54857 | 15465 ft | 410 kts | 309° |
| 2026-05-07 06:13 | 7.54161 | 125.52553 | 16333 ft | 414 kts | 309° |
| 2026-05-07 06:13 | 7.55956 | 125.50213 | 16942 ft | 424 kts | 310° |
| 2026-05-07 06:13 | 7.57779 | 125.47845 | 17664 ft | 431 kts | 310° |
| 2026-05-07 06:14 | 7.59640 | 125.45435 | 18429 ft | 436 kts | 310° |
| 2026-05-07 06:14 | 7.61524 | 125.42998 | 19177 ft | 440 kts | 310° |
| 2026-05-07 06:14 | 7.63403 | 125.40570 | 19879 ft | 445 kts | 310° |
| 2026-05-07 06:14 | 7.65269 | 125.38160 | 20558 ft | 450 kts | 310° |
| 2026-05-07 06:15 | 7.67235 | 125.35622 | 21262 ft | 453 kts | 310° |
| 2026-05-07 06:15 | 7.69210 | 125.33073 | 21914 ft | 458 kts | 309° |
| 2026-05-07 06:15 | 7.71218 | 125.30481 | 22519 ft | 463 kts | 309° |
| 2026-05-07 06:15 | 7.73223 | 125.27893 | 23163 ft | 467 kts | 309° |
| 2026-05-07 06:16 | 7.75257 | 125.25268 | 23873 ft | 468 kts | 309° |
| 2026-05-07 06:16 | 7.77289 | 125.22645 | 24561 ft | 470 kts | 309° |
| 2026-05-07 06:16 | 7.79348 | 125.19987 | 25186 ft | 474 kts | 309° |
| 2026-05-07 06:16 | 7.81450 | 125.17274 | 25813 ft | 478 kts | 309° |
| 2026-05-07 06:17 | 7.83561 | 125.14548 | 26508 ft | 480 kts | 309° |
| 2026-05-07 06:17 | 7.85679 | 125.11813 | 27195 ft | 482 kts | 309° |
| 2026-05-07 06:17 | 7.87790 | 125.09086 | 27828 ft | 485 kts | 309° |
| 2026-05-07 06:17 | 7.89929 | 125.06323 | 28429 ft | 489 kts | 309° |
| 2026-05-07 06:18 | 7.92054 | 125.03577 | 29069 ft | 493 kts | 309° |
| 2026-05-07 06:18 | 7.94218 | 125.00781 | 29801 ft | 494 kts | 309° |
| 2026-05-07 06:18 | 7.96391 | 124.98093 | 30718 ft | 489 kts | 314° |
| 2026-05-07 06:18 | 7.98895 | 124.95727 | 31715 ft | 482 kts | 321° |
| 2026-05-07 06:19 | 8.01512 | 124.93571 | 32714 ft | 476 kts | 322° |
| 2026-05-07 06:19 | 8.04138 | 124.91433 | 33609 ft | 474 kts | 322° |
| 2026-05-07 06:19 | 8.06712 | 124.89338 | 34334 ft | 473 kts | 321° |
| 2026-05-07 06:19 | 8.09365 | 124.87179 | 34990 ft | 474 kts | 321° |
| 2026-05-07 06:20 | 8.11475 | 124.85460 | 35538 ft | 474 kts | 321° |
| 2026-05-07 06:20 | 8.14092 | 124.83329 | 36261 ft | 472 kts | 321° |
| 2026-05-07 06:20 | 8.16703 | 124.81201 | 36905 ft | 472 kts | 321° |
| 2026-05-07 06:20 | 8.19290 | 124.79093 | 37459 ft | 471 kts | 321° |
| 2026-05-07 06:21 | 8.21570 | 124.77234 | 37850 ft | 472 kts | 320° |
| 2026-05-07 06:21 | 8.26776 | 124.72988 | 37915 ft | 474 kts | 320° |
| 2026-05-07 06:22 | 8.31946 | 124.68771 | 37891 ft | 475 kts | 320° |
| 2026-05-07 06:22 | 8.39614 | 124.62513 | 37861 ft | 476 kts | 320° |
| 2026-05-07 06:23 | 8.45251 | 124.58775 | 37839 ft | 477 kts | 330° |
| 2026-05-07 06:23 | 8.51099 | 124.55409 | 37820 ft | 478 kts | 330° |
| 2026-05-07 06:24 | 8.56920 | 124.52056 | 37810 ft | 477 kts | 330° |
| 2026-05-07 06:24 | 8.62760 | 124.48689 | 37804 ft | 479 kts | 330° |